createdAt,value
2018-02-23T00:00:54.835Z,19.83
2018-02-23T00:01:55.927Z,17.42
2018-02-23T00:02:57.047Z,18.80
2018-02-23T00:03:58.139Z,18.17
2018-02-23T00:04:59.243Z,20.48
2018-02-23T00:06:00.331Z,19.62
2018-02-23T00:07:01.432Z,16.42
2018-02-23T00:08:02.541Z,19.73
2018-02-23T00:09:03.656Z,25.95
2018-02-23T00:10:04.740Z,14.25
2018-02-23T00:11:06.592Z,17.52
2018-02-23T00:12:08.436Z,18.80
2018-02-23T00:13:10.279Z,18.98
2018-02-23T00:14:11.386Z,17.50
2018-02-23T00:15:12.476Z,17.92
2018-02-23T00:16:13.571Z,17.50
2018-02-23T00:17:14.668Z,18.85
2018-02-23T00:18:15.761Z,16.08
2018-02-23T00:19:16.849Z,19.83
2018-02-23T00:20:17.948Z,16.42
2018-02-23T00:21:19.034Z,16.87
2018-02-23T00:22:20.128Z,18.70
2018-02-23T00:23:21.944Z,16.15
2018-02-23T00:24:23.040Z,14.73
2018-02-23T00:25:24.121Z,18.08
2018-02-23T00:26:25.207Z,14.25
2018-02-23T00:28:26.952Z,16.35
2018-02-23T00:29:28.041Z,19.10
2018-02-23T00:30:29.128Z,15.38
2018-02-23T00:31:30.229Z,18.35
2018-02-23T00:32:32.550Z,20.17
2018-02-23T00:33:33.648Z,19.08
2018-02-23T00:34:34.739Z,15.85
2018-02-23T00:35:35.820Z,19.10
2018-02-23T00:36:36.919Z,14.25
2018-02-23T00:37:38.009Z,16.85
2018-02-23T00:38:39.856Z,20.25
2018-02-23T00:39:41.707Z,17.27
2018-02-23T00:40:42.833Z,15.95
2018-02-23T00:41:43.895Z,14.43
2018-02-23T00:42:45.004Z,18.95
2018-02-23T00:43:46.853Z,20.88
2018-02-23T00:44:47.931Z,15.10
2018-02-23T00:45:49.029Z,19.50
2018-02-23T00:46:50.129Z,20.48
2018-02-23T00:47:51.227Z,16.20
2018-02-23T00:48:52.340Z,15.85
2018-02-23T00:49:53.436Z,16.27
2018-02-23T00:50:54.549Z,18.48
2018-02-23T00:51:55.652Z,13.95
2018-02-23T00:52:57.484Z,18.75
2018-02-23T00:53:59.332Z,18.23
2018-02-23T00:55:00.423Z,17.67
2018-02-23T00:56:01.516Z,15.18
2018-02-23T00:57:02.629Z,13.43
2018-02-23T00:58:04.512Z,19.33
2018-02-23T00:59:05.612Z,18.83
2018-02-23T01:00:06.724Z,15.77
2018-02-23T01:01:07.831Z,20.25
2018-02-23T01:02:08.920Z,15.85
2018-02-23T01:03:10.008Z,19.30
2018-02-23T01:04:11.104Z,16.60
2018-02-23T01:05:12.951Z,18.37
2018-02-23T01:06:14.055Z,14.57
2018-02-23T01:07:15.904Z,16.83
2018-02-23T01:08:17.007Z,16.58
2018-02-23T01:09:18.092Z,14.15
2018-02-23T01:10:19.179Z,16.87
2018-02-23T01:11:20.277Z,16.33
2018-02-23T01:12:21.393Z,18.15
2018-02-23T01:13:22.528Z,16.15
2018-02-23T01:14:23.629Z,15.32
2018-02-23T01:15:25.480Z,17.17
2018-02-23T01:16:26.563Z,17.65
2018-02-23T01:17:27.651Z,14.77
2018-02-23T01:18:29.485Z,21.48
2018-02-23T01:19:30.572Z,18.75
2018-02-23T01:20:31.656Z,19.80
2018-02-23T01:21:32.798Z,19.73
2018-02-23T01:22:33.844Z,22.15
2018-02-23T01:23:34.918Z,15.80
2018-02-23T01:24:36.003Z,19.45
2018-02-23T01:25:37.095Z,18.08
2018-02-23T01:26:39.109Z,23.15
2018-02-23T01:27:40.939Z,18.45
2018-02-23T01:28:42.095Z,18.30
2018-02-23T01:29:43.225Z,17.90
2018-02-23T01:30:44.364Z,16.85
2018-02-23T01:31:45.490Z,20.60
2018-02-23T01:32:46.628Z,18.62
2018-02-23T01:33:47.791Z,19.40
2018-02-23T01:34:48.936Z,24.20
2018-02-23T01:35:50.068Z,21.23
2018-02-23T01:36:51.220Z,19.73
2018-02-23T01:37:52.361Z,17.65
2018-02-23T01:38:53.501Z,22.48
2018-02-23T01:39:54.621Z,18.60
2018-02-23T01:40:56.503Z,18.65
2018-02-23T01:41:57.733Z,19.23
2018-02-23T01:42:58.854Z,18.85
2018-02-23T01:44:00.647Z,19.10
2018-02-23T01:45:01.840Z,18.35
2018-02-23T01:46:03.683Z,21.52
2018-02-23T01:47:04.820Z,19.98
2018-02-23T01:48:05.951Z,19.20
2018-02-23T01:49:07.975Z,21.35
2018-02-23T01:50:09.105Z,17.95
2018-02-23T01:51:10.248Z,19.87
2018-02-23T01:52:11.376Z,18.37
2018-02-23T01:53:12.517Z,17.90
2018-02-23T01:54:14.422Z,20.48
2018-02-23T01:55:15.648Z,20.30
2018-02-23T01:56:16.751Z,18.48
2018-02-23T01:57:17.864Z,23.55
2018-02-23T01:58:19.001Z,16.80
2018-02-23T01:59:20.136Z,17.00
2018-02-23T02:00:21.291Z,21.25
2018-02-23T02:01:22.420Z,17.70
2018-02-23T02:02:24.257Z,20.80
2018-02-23T02:03:25.380Z,23.40
2018-02-23T02:04:27.464Z,23.00
2018-02-23T02:05:28.590Z,20.15
2018-02-23T02:06:30.444Z,14.73
2018-02-23T02:07:32.309Z,14.25
2018-02-23T02:08:33.440Z,19.52
2018-02-23T02:09:34.598Z,24.20
2018-02-23T02:10:35.777Z,19.50
2018-02-23T02:11:36.911Z,17.23
2018-02-23T02:12:38.042Z,20.65
2018-02-23T02:13:39.166Z,17.75
2018-02-23T02:14:40.309Z,21.90
2018-02-23T02:15:41.447Z,22.77
2018-02-23T02:16:42.580Z,15.50
2018-02-23T02:17:43.715Z,19.40
2018-02-23T02:18:45.587Z,15.27
2018-02-23T02:19:46.725Z,20.55
2018-02-23T02:20:47.864Z,19.10
2018-02-23T02:21:48.989Z,18.48
2018-02-23T02:22:50.850Z,16.45
2018-02-23T02:23:51.983Z,16.15
2018-02-23T02:24:53.097Z,25.65
2018-02-23T02:25:54.221Z,15.07
2018-02-23T02:26:55.336Z,18.45
2018-02-23T02:27:56.476Z,20.00
2018-02-23T02:28:58.377Z,18.85
2018-02-23T02:30:00.092Z,17.65
2018-02-23T02:31:01.212Z,16.45
2018-02-23T02:32:03.075Z,17.83
2018-02-23T02:33:05.923Z,22.17
2018-02-23T02:34:07.064Z,18.25
2018-02-23T02:35:08.192Z,20.40
2018-02-23T02:36:09.336Z,16.92
2018-02-23T02:37:10.468Z,19.10
2018-02-23T02:38:12.339Z,18.95
2018-02-23T02:39:14.235Z,22.37
2018-02-23T02:40:15.348Z,19.65
2018-02-23T02:41:16.482Z,19.45
2018-02-23T02:42:17.601Z,16.83
2018-02-23T02:43:18.712Z,21.25
2018-02-23T02:44:19.854Z,16.60
2018-02-23T02:45:21.706Z,19.08
2018-02-23T02:46:22.832Z,17.17
2018-02-23T02:47:24.700Z,20.42
2018-02-23T02:48:26.552Z,23.62
2018-02-23T02:49:27.682Z,21.05
2018-02-23T02:50:28.773Z,20.80
2018-02-23T02:51:29.912Z,18.17
2018-02-23T02:52:31.026Z,24.00
2018-02-23T02:53:32.182Z,19.10
2018-02-23T02:54:33.313Z,19.73
2018-02-23T02:55:34.429Z,19.77
2018-02-23T02:56:35.556Z,22.98
2018-02-23T02:57:36.688Z,16.95
2018-02-23T02:58:37.813Z,18.60
2018-02-23T02:59:38.940Z,21.67
2018-02-23T03:00:40.085Z,21.12
2018-02-23T03:01:41.196Z,19.30
2018-02-23T03:02:42.319Z,23.80
2018-02-23T03:03:43.457Z,19.40
2018-02-23T03:04:44.591Z,20.50
2018-02-23T03:05:45.708Z,19.62
2018-02-23T03:06:47.572Z,21.55
2018-02-23T03:07:48.698Z,18.75
2018-02-23T03:08:49.836Z,18.45
2018-02-23T03:09:50.972Z,20.27
2018-02-23T03:10:52.103Z,17.67
2018-02-23T03:11:53.231Z,18.92
2018-02-23T03:12:54.361Z,23.87
2018-02-23T03:13:55.496Z,18.60
2018-02-23T03:14:57.364Z,19.23
2018-02-23T03:15:58.489Z,22.73
2018-02-23T03:16:59.588Z,17.02
2018-02-23T03:18:01.482Z,20.40
2018-02-23T03:19:02.587Z,18.35
2018-02-23T03:20:04.420Z,25.92
2018-02-23T03:21:05.488Z,25.65
2018-02-23T03:22:06.579Z,19.02
2018-02-23T03:23:07.664Z,29.48
2018-02-23T03:24:08.755Z,16.67
2018-02-23T03:25:09.828Z,23.30
2018-02-23T03:26:10.885Z,22.05
2018-02-23T03:27:11.963Z,26.27
2018-02-23T03:28:13.792Z,27.20
2018-02-23T03:29:14.844Z,29.33
2018-02-23T03:30:16.654Z,21.48
2018-02-23T03:31:17.725Z,16.67
2018-02-23T03:32:19.527Z,17.62
2018-02-23T03:33:20.586Z,21.98
2018-02-23T03:34:21.635Z,16.15
2018-02-23T03:35:22.715Z,19.12
2018-02-23T03:36:23.792Z,13.80
2018-02-23T03:37:24.866Z,16.23
2018-02-23T03:38:25.935Z,16.23
2018-02-23T03:39:27.023Z,18.52
2018-02-23T03:40:28.099Z,24.35
2018-02-23T03:41:29.171Z,19.15
2018-02-23T03:42:30.249Z,17.87
2018-02-23T03:43:31.345Z,19.23
2018-02-23T03:44:32.420Z,21.00
2018-02-23T03:45:33.482Z,14.65
2018-02-23T03:46:34.532Z,18.75
2018-02-23T03:47:35.608Z,17.00
2018-02-23T03:48:36.668Z,21.10
2018-02-23T03:49:37.744Z,18.70
2018-02-23T03:50:39.572Z,20.83
2018-02-23T03:51:41.384Z,25.33
2018-02-23T03:52:42.482Z,20.75
2018-02-23T03:53:43.549Z,19.15
2018-02-23T03:54:44.647Z,28.75
2018-02-23T03:55:45.733Z,20.92
2018-02-23T03:56:46.812Z,18.10
2018-02-23T03:57:47.902Z,21.60
2018-02-23T03:58:49.715Z,14.43
2018-02-23T03:59:50.768Z,19.40
2018-02-23T04:00:51.860Z,21.42
2018-02-23T04:01:52.941Z,16.77
2018-02-23T04:02:54.002Z,21.25
2018-02-23T04:03:55.071Z,19.00
2018-02-23T04:04:56.149Z,22.00
2018-02-23T04:05:57.211Z,19.10
2018-02-23T04:06:58.276Z,18.12
2018-02-23T04:07:59.335Z,18.55
2018-02-23T04:09:00.411Z,20.12
2018-02-23T04:10:01.483Z,20.15
2018-02-23T04:11:02.596Z,17.87
2018-02-23T04:12:03.665Z,15.38
2018-02-23T04:13:05.496Z,15.73
2018-02-23T04:14:06.565Z,16.48
2018-02-23T04:15:07.669Z,20.05
2018-02-23T04:16:08.756Z,17.35
2018-02-23T04:17:09.826Z,20.35
2018-02-23T04:18:10.895Z,20.80
2018-02-23T04:19:11.980Z,16.35
2018-02-23T04:20:13.052Z,19.75
2018-02-23T04:21:14.855Z,17.37
2018-02-23T04:22:15.910Z,20.37
2018-02-23T04:23:16.977Z,23.42
2018-02-23T04:24:18.771Z,15.13
2018-02-23T04:25:19.844Z,24.45
2018-02-23T04:26:21.689Z,22.55
2018-02-23T04:27:23.512Z,22.13
2018-02-23T04:28:24.728Z,24.50
2018-02-23T04:29:25.791Z,19.52
2018-02-23T04:30:26.879Z,18.65
2018-02-23T04:31:27.947Z,21.92
2018-02-23T04:32:29.040Z,18.85
2018-02-23T04:33:30.132Z,23.35
2018-02-23T04:34:31.198Z,18.08
2018-02-23T04:35:32.298Z,23.87
2018-02-23T04:36:33.396Z,14.95
2018-02-23T04:37:34.499Z,17.15
2018-02-23T04:38:35.567Z,18.50
2018-02-23T04:39:36.704Z,18.02
2018-02-23T04:40:37.789Z,18.58
2018-02-23T04:41:38.887Z,16.30
2018-02-23T04:42:39.984Z,24.08
2018-02-23T04:43:41.070Z,19.05
2018-02-23T04:44:42.171Z,20.65
2018-02-23T04:45:43.276Z,18.08
2018-02-23T04:46:44.363Z,17.92
2018-02-23T04:47:46.187Z,17.62
2018-02-23T04:48:47.251Z,20.73
2018-02-23T04:49:49.067Z,23.30
2018-02-23T04:50:50.176Z,19.50
2018-02-23T04:51:52.015Z,23.50
2018-02-23T04:52:53.095Z,19.98
2018-02-23T04:53:54.160Z,16.45
2018-02-23T04:54:55.240Z,18.67
2018-02-23T04:55:56.374Z,15.90
2018-02-23T04:56:57.421Z,20.58
2018-02-23T04:57:58.479Z,18.08
2018-02-23T04:58:59.549Z,17.05
2018-02-23T05:00:00.635Z,23.98
2018-02-23T05:01:02.476Z,20.27
2018-02-23T05:02:03.560Z,22.27
2018-02-23T05:03:04.642Z,24.65
2018-02-23T05:04:05.719Z,15.57
2018-02-23T05:05:06.792Z,21.87
2018-02-23T05:06:07.894Z,18.05
2018-02-23T05:07:08.984Z,21.40
2018-02-23T05:08:10.808Z,22.75
2018-02-23T05:09:11.892Z,18.87
2018-02-23T05:10:12.982Z,22.45
2018-02-23T05:11:14.055Z,20.80
2018-02-23T05:12:15.131Z,24.08
2018-02-23T05:13:16.232Z,20.83
2018-02-23T05:14:17.327Z,16.00
2018-02-23T05:15:18.400Z,20.08
2018-02-23T05:16:19.487Z,19.92
2018-02-23T05:17:20.614Z,21.80
2018-02-23T05:18:21.713Z,20.00
2018-02-23T05:19:22.808Z,19.90
2018-02-23T05:20:23.879Z,18.73
2018-02-23T05:21:25.005Z,17.60
2018-02-23T05:22:26.091Z,25.10
2018-02-23T05:23:27.215Z,20.08
2018-02-23T05:24:29.047Z,20.20
2018-02-23T05:25:30.143Z,22.60
2018-02-23T05:26:31.242Z,20.80
2018-02-23T05:27:32.339Z,18.83
2018-02-23T05:28:33.436Z,22.27
2018-02-23T05:29:34.544Z,18.10
2018-02-23T05:30:35.642Z,22.85
2018-02-23T05:31:36.735Z,18.30
2018-02-23T05:32:37.840Z,22.87
2018-02-23T05:33:39.648Z,21.25
2018-02-23T05:34:40.728Z,24.23
2018-02-23T05:35:41.887Z,18.40
2018-02-23T05:36:42.972Z,23.30
2018-02-23T05:37:44.772Z,17.40
2018-02-23T05:38:45.857Z,16.70
2018-02-23T05:39:47.681Z,21.90
2018-02-23T05:40:48.755Z,21.92
2018-02-23T05:41:49.855Z,16.77
2018-02-23T05:42:50.940Z,22.02
2018-02-23T05:43:52.776Z,19.87
2018-02-23T05:44:53.867Z,21.58
2018-02-23T05:45:55.788Z,19.77
2018-02-23T05:46:56.955Z,15.32
2018-02-23T05:47:58.165Z,23.42
2018-02-23T05:48:59.323Z,19.42
2018-02-23T05:50:00.448Z,22.45
2018-02-23T05:51:01.519Z,24.33
2018-02-23T05:52:02.599Z,24.05
2018-02-23T05:53:03.676Z,20.45
2018-02-23T05:54:05.503Z,18.23
2018-02-23T05:55:06.601Z,16.62
2018-02-23T05:56:07.695Z,24.02
2018-02-23T05:57:08.860Z,19.50
2018-02-23T05:58:09.967Z,21.02
2018-02-23T05:59:11.052Z,24.52
2018-02-23T06:00:12.157Z,19.67
2018-02-23T06:01:13.262Z,23.10
2018-02-23T06:02:14.380Z,20.08
2018-02-23T06:03:16.216Z,22.42
2018-02-23T06:04:17.332Z,22.65
2018-02-23T06:05:18.395Z,21.87
2018-02-23T06:06:20.219Z,22.77
2018-02-23T06:07:21.296Z,20.17
2018-02-23T06:08:22.381Z,23.60
2018-02-23T06:09:23.472Z,23.48
2018-02-23T06:10:24.577Z,22.37
2018-02-23T06:11:26.388Z,18.77
2018-02-23T06:12:27.480Z,23.83
2018-02-23T06:13:28.552Z,23.73
2018-02-23T06:14:29.669Z,29.25
2018-02-23T06:15:36.991Z,23.83
2018-02-23T06:16:38.103Z,20.58
2018-02-23T06:19:22.983Z,20.90
2018-02-23T06:20:27.900Z,19.92
2018-02-23T06:21:29.002Z,23.80
2018-02-23T06:22:30.099Z,18.52
2018-02-23T06:23:31.901Z,24.42
2018-02-23T06:24:32.992Z,25.80
2018-02-23T06:25:34.067Z,17.62
2018-02-23T06:26:35.155Z,24.55
2018-02-23T06:27:36.874Z,22.50
2018-02-23T06:28:37.948Z,19.00
2018-02-23T06:29:39.024Z,25.98
2018-02-23T06:30:40.108Z,22.05
2018-02-23T06:31:41.196Z,25.88
2018-02-23T06:32:42.265Z,23.33
2018-02-23T06:33:43.353Z,24.30
2018-02-23T06:34:44.503Z,24.60
2018-02-23T06:35:46.347Z,21.00
2018-02-23T06:36:48.193Z,21.60
2018-02-23T06:37:49.283Z,25.77
2018-02-23T06:38:50.365Z,24.27
2018-02-23T06:39:51.419Z,23.92
2018-02-23T06:40:52.507Z,23.70
2018-02-23T06:41:53.615Z,24.05
2018-02-23T06:42:54.708Z,29.12
2018-02-23T06:43:55.787Z,22.20
2018-02-23T06:44:56.859Z,19.80
2018-02-23T06:45:58.884Z,31.30
2018-02-23T06:47:06.207Z,24.40
2018-02-23T06:48:09.364Z,32.15
2018-02-23T06:49:10.407Z,21.98
2018-02-23T06:50:11.507Z,19.60
2018-02-23T06:51:12.596Z,22.58
2018-02-23T06:52:13.692Z,18.27
2018-02-23T06:53:14.779Z,22.17
2018-02-23T06:54:15.866Z,21.30
2018-02-23T06:55:18.575Z,21.83
2018-02-23T06:56:19.663Z,22.60
2018-02-23T06:57:20.771Z,24.27
2018-02-23T06:58:21.871Z,26.77
2018-02-23T06:59:22.970Z,20.05
2018-02-23T07:00:24.783Z,24.00
2018-02-23T07:01:25.876Z,23.80
2018-02-23T07:02:26.969Z,18.17
2018-02-23T07:03:29.096Z,25.42
2018-02-23T07:04:30.187Z,19.92
2018-02-23T07:05:31.255Z,20.77
2018-02-23T07:06:32.329Z,17.52
2018-02-23T07:07:33.423Z,23.52
2018-02-23T07:08:34.493Z,24.20
2018-02-23T07:09:35.587Z,22.40
2018-02-23T07:10:37.412Z,19.90
2018-02-23T07:11:39.549Z,26.15
2018-02-23T07:12:40.627Z,22.87
2018-02-23T07:13:41.698Z,23.33
2018-02-23T07:14:43.528Z,24.45
2018-02-23T07:15:44.627Z,22.75
2018-02-23T07:16:45.708Z,18.10
2018-02-23T07:17:46.799Z,21.90
2018-02-23T07:18:47.881Z,23.83
2018-02-23T07:19:49.695Z,21.67
2018-02-23T07:20:50.762Z,25.17
2018-02-23T07:21:52.007Z,24.42
2018-02-23T07:22:53.815Z,21.75
2018-02-23T07:23:55.013Z,30.73
2018-02-23T07:24:56.113Z,26.58
2018-02-23T07:25:57.955Z,21.23
2018-02-23T07:26:59.976Z,24.52
2018-02-23T07:28:01.079Z,27.23
2018-02-23T07:29:02.187Z,26.83
2018-02-23T07:30:03.271Z,28.02
2018-02-23T07:31:04.372Z,23.75
2018-02-23T07:32:05.435Z,40.67
2018-02-23T07:33:06.530Z,31.15
2018-02-23T07:34:08.354Z,31.90
2018-02-23T07:35:10.796Z,26.12
2018-02-23T07:36:11.872Z,29.80
2018-02-23T07:37:13.700Z,20.60
2018-02-23T07:38:14.796Z,25.30
2018-02-23T07:39:15.896Z,26.30
2018-02-23T07:40:17.005Z,31.80
2018-02-23T07:41:18.847Z,22.83
2018-02-23T07:42:21.002Z,29.67
2018-02-23T07:43:22.095Z,22.33
2018-02-23T07:44:23.207Z,22.20
2018-02-23T07:45:24.303Z,22.85
2018-02-23T07:46:26.148Z,26.48
2018-02-23T07:47:27.225Z,25.20
2018-02-23T07:48:28.307Z,23.83
2018-02-23T07:49:29.435Z,21.55
2018-02-23T07:50:30.559Z,25.08
2018-02-23T07:51:31.648Z,23.73
2018-02-23T07:52:32.771Z,22.62
2018-02-23T07:53:34.628Z,20.17
2018-02-23T07:54:35.723Z,20.85
2018-02-23T07:55:36.792Z,26.58
2018-02-23T07:56:38.630Z,27.87
2018-02-23T07:57:39.715Z,27.75
2018-02-23T07:58:40.860Z,25.58
2018-02-23T07:59:41.988Z,20.30
2018-02-23T08:00:45.007Z,22.13
2018-02-23T08:01:46.091Z,21.73
2018-02-23T08:02:47.180Z,23.90
2018-02-23T08:03:48.992Z,21.70
2018-02-23T08:04:50.140Z,22.42
2018-02-23T08:05:51.994Z,27.75
2018-02-23T08:06:53.111Z,26.25
2018-02-23T08:07:54.265Z,28.00
2018-02-23T08:08:55.324Z,32.13
2018-02-23T08:09:56.416Z,30.23
2018-02-23T08:10:57.499Z,24.27
2018-02-23T08:11:58.602Z,30.42
2018-02-23T08:12:59.707Z,22.10
2018-02-23T08:14:00.836Z,24.67
2018-02-23T08:15:01.944Z,23.10
2018-02-23T08:16:03.039Z,27.25
2018-02-23T08:17:04.123Z,24.70
2018-02-23T08:18:05.200Z,25.17
2018-02-23T08:19:06.296Z,26.90
2018-02-23T08:20:07.371Z,23.38
2018-02-23T08:21:08.467Z,24.00
2018-02-23T08:22:09.551Z,21.10
2018-02-23T08:23:10.649Z,26.80
2018-02-23T08:24:12.470Z,28.00
2018-02-23T08:25:13.548Z,22.13
2018-02-23T08:26:14.661Z,23.48
2018-02-23T08:27:15.760Z,21.95
2018-02-23T08:28:16.866Z,28.92
2018-02-23T08:29:17.969Z,23.12
2018-02-23T08:30:19.115Z,26.30
2018-02-23T08:31:20.197Z,22.98
2018-02-23T08:32:21.270Z,20.48
2018-02-23T08:33:23.091Z,28.62
2018-02-23T08:34:24.176Z,28.40
2018-02-23T08:35:25.247Z,27.90
2018-02-23T08:36:26.367Z,29.65
2018-02-23T08:37:27.451Z,25.05
2018-02-23T08:38:29.268Z,25.80
2018-02-23T08:39:30.386Z,24.50
2018-02-23T08:40:31.471Z,28.62
2018-02-23T08:41:33.287Z,24.37
2018-02-23T08:42:34.351Z,23.67
2018-02-23T08:43:35.442Z,25.58
2018-02-23T08:44:36.578Z,24.92
2018-02-23T08:45:37.696Z,29.48
2018-02-23T08:46:39.610Z,23.33
2018-02-23T08:47:40.706Z,29.98
2018-02-23T08:48:41.811Z,24.85
2018-02-23T08:49:42.890Z,35.53
2018-02-23T08:50:44.707Z,24.00
2018-02-23T08:51:45.787Z,25.12
2018-02-23T08:52:46.871Z,34.58
2018-02-23T08:53:48.003Z,21.62
2018-02-23T08:54:49.080Z,25.52
2018-02-23T08:55:50.157Z,41.63
2018-02-23T08:56:51.234Z,22.87
2018-02-23T08:57:53.065Z,26.17
2018-02-23T08:58:54.144Z,28.98
2018-02-23T08:59:55.219Z,21.87
2018-02-23T09:00:56.361Z,24.10
2018-02-23T09:01:57.477Z,24.48
2018-02-23T09:02:58.548Z,25.60
2018-02-23T09:04:00.363Z,26.12
2018-02-23T09:05:01.439Z,36.42
2018-02-23T09:06:02.538Z,25.58
2018-02-23T09:07:03.643Z,33.25
2018-02-23T09:08:04.708Z,22.37
2018-02-23T09:09:05.815Z,25.80
2018-02-23T09:10:06.923Z,30.90
2018-02-23T09:11:08.027Z,23.62
2018-02-23T09:12:09.839Z,24.00
2018-02-23T09:13:10.932Z,24.40
2018-02-23T09:14:12.047Z,41.05
2018-02-23T09:15:13.874Z,28.83
2018-02-23T09:16:14.947Z,28.02
2018-02-23T09:17:16.020Z,26.20
2018-02-23T09:18:17.092Z,23.45
2018-02-23T09:19:18.172Z,37.85
2018-02-23T09:20:19.324Z,30.02
2018-02-23T09:21:20.419Z,24.12
2018-02-23T09:22:21.504Z,30.88
2018-02-23T09:23:22.603Z,23.27
2018-02-23T09:24:23.684Z,28.25
2018-02-23T09:25:25.495Z,28.70
2018-02-23T09:26:26.560Z,22.92
2018-02-23T09:27:28.384Z,27.08
2018-02-23T09:28:29.479Z,31.35
2018-02-23T09:29:30.550Z,24.33
2018-02-23T09:30:31.617Z,29.75
2018-02-23T09:31:32.715Z,24.85
2018-02-23T09:32:36.771Z,25.40
2018-02-23T09:33:50.036Z,25.75
2018-02-23T09:34:51.084Z,22.55
2018-02-23T09:35:52.160Z,23.62
2018-02-23T09:36:53.229Z,33.75
2018-02-23T09:37:54.311Z,21.75
2018-02-23T09:38:55.384Z,34.45
2018-02-23T09:39:56.479Z,25.73
2018-02-23T09:40:57.556Z,26.62
2018-02-23T09:41:58.652Z,32.85
2018-02-23T09:42:59.752Z,24.73
2018-02-23T09:44:01.571Z,27.48
2018-02-23T09:45:02.651Z,29.95
2018-02-23T09:46:03.734Z,26.45
2018-02-23T09:47:04.816Z,29.65
2018-02-23T09:48:05.952Z,26.80
2018-02-23T09:49:07.048Z,27.80
2018-02-23T09:50:08.141Z,26.80
2018-02-23T09:51:09.207Z,24.00
2018-02-23T09:52:10.286Z,34.10
2018-02-23T09:53:11.360Z,33.05
2018-02-23T09:54:13.175Z,31.08
2018-02-23T09:55:14.255Z,21.77
2018-02-23T09:56:15.328Z,29.63
2018-02-23T09:57:16.429Z,26.77
2018-02-23T09:58:17.495Z,30.50
2018-02-23T09:59:18.595Z,24.85
2018-02-23T10:00:19.690Z,27.95
2018-02-23T10:01:20.779Z,23.55
2018-02-23T10:02:22.582Z,26.42
2018-02-23T10:03:23.663Z,29.40
2018-02-23T10:04:24.747Z,48.10
2018-02-23T10:05:25.820Z,32.40
2018-02-23T10:06:26.894Z,33.17
2018-02-23T10:07:27.959Z,25.12
2018-02-23T10:08:29.024Z,26.00
2018-02-23T10:09:30.099Z,39.90
2018-02-23T10:10:31.175Z,27.27
2018-02-23T10:11:33.014Z,25.77
2018-02-23T10:12:34.828Z,27.35
2018-02-23T10:13:35.911Z,24.60
2018-02-23T10:14:37.768Z,29.50
2018-02-23T10:15:38.841Z,33.10
2018-02-23T10:16:39.931Z,34.33
2018-02-23T10:17:41.025Z,26.08
2018-02-23T10:18:42.140Z,29.67
2018-02-23T10:19:43.223Z,23.42
2018-02-23T10:20:44.303Z,27.55
2018-02-23T10:21:45.383Z,28.70
2018-02-23T10:22:46.472Z,31.20
2018-02-23T10:23:47.547Z,34.25
2018-02-23T10:24:49.369Z,29.80
2018-02-23T10:25:50.453Z,29.70
2018-02-23T10:26:51.519Z,33.35
2018-02-23T10:27:52.593Z,30.75
2018-02-23T10:28:53.674Z,27.33
2018-02-23T10:29:54.763Z,25.37
2018-02-23T10:30:55.867Z,25.73
2018-02-23T10:31:57.011Z,30.27
2018-02-23T10:32:58.299Z,32.60
2018-02-23T10:33:59.398Z,23.12
2018-02-23T10:35:00.487Z,26.02
2018-02-23T10:36:01.613Z,30.48
2018-02-23T10:37:02.663Z,26.75
2018-02-23T10:38:03.868Z,29.08
2018-02-23T10:39:04.904Z,26.58
2018-02-23T10:40:05.999Z,31.58
2018-02-23T10:41:07.127Z,26.65
2018-02-23T10:42:08.961Z,27.42
2018-02-23T10:43:10.819Z,28.48
2018-02-23T10:44:12.668Z,34.03
2018-02-23T10:45:14.525Z,25.00
2018-02-23T10:46:15.615Z,25.25
2018-02-23T10:47:16.763Z,31.75
2018-02-23T10:48:17.808Z,27.73
2018-02-23T10:49:19.639Z,32.75
2018-02-23T10:50:20.751Z,39.45
2018-02-23T10:51:21.847Z,30.40
2018-02-23T10:52:23.684Z,27.27
2018-02-23T10:53:24.779Z,33.28
2018-02-23T10:54:25.872Z,28.30
2018-02-23T10:55:26.939Z,28.98
2018-02-23T10:56:28.028Z,28.62
2018-02-23T10:57:29.150Z,32.03
2018-02-23T10:58:30.987Z,32.72
2018-02-23T10:59:32.099Z,40.72
2018-02-23T11:00:33.194Z,38.75
2018-02-23T11:01:34.293Z,29.55
2018-02-23T11:02:35.387Z,25.65
2018-02-23T11:03:36.492Z,25.10
2018-02-23T11:04:37.599Z,39.45
2018-02-23T11:05:38.663Z,24.92
2018-02-23T11:06:39.733Z,33.22
2018-02-23T11:07:41.597Z,27.45
2018-02-23T11:08:43.411Z,27.35
2018-02-23T11:09:44.508Z,28.23
2018-02-23T11:10:45.621Z,30.40
2018-02-23T11:11:46.740Z,25.40
2018-02-23T11:12:47.823Z,25.37
2018-02-23T11:13:48.904Z,25.30
2018-02-23T11:14:50.747Z,31.33
2018-02-23T11:15:51.901Z,29.55
2018-02-23T11:16:53.747Z,33.40
2018-02-23T11:17:54.843Z,28.80
2018-02-23T11:18:55.927Z,32.97
2018-02-23T11:19:57.082Z,28.02
2018-02-23T11:20:58.936Z,32.38
2018-02-23T11:22:00.020Z,28.52
2018-02-23T11:23:01.103Z,24.12
2018-02-23T11:24:02.221Z,31.08
2018-02-23T11:25:03.318Z,34.13
2018-02-23T11:26:05.148Z,29.98
2018-02-23T11:27:06.245Z,29.45
2018-02-23T11:28:07.334Z,30.55
2018-02-23T11:29:09.157Z,31.83
2018-02-23T11:30:10.239Z,45.90
2018-02-23T11:31:11.334Z,25.42
2018-02-23T11:32:12.399Z,35.20
2018-02-23T11:33:14.212Z,39.50
2018-02-23T11:34:15.291Z,34.03
2018-02-23T11:35:16.394Z,32.55
2018-02-23T11:36:17.460Z,32.17
2018-02-23T11:37:18.564Z,23.80
2018-02-23T11:38:20.412Z,27.67
2018-02-23T11:39:21.475Z,38.10
2018-02-23T11:40:22.567Z,35.00
2018-02-23T11:41:23.664Z,29.40
2018-02-23T11:42:24.728Z,32.47
2018-02-23T11:43:25.811Z,29.08
2018-02-23T11:44:26.907Z,29.58
2018-02-23T11:45:28.011Z,24.60
2018-02-23T11:46:29.135Z,27.87
2018-02-23T11:47:30.260Z,31.87
2018-02-23T11:48:31.333Z,29.42
2018-02-23T11:49:33.166Z,38.97
2018-02-23T11:50:34.244Z,26.12
2018-02-23T11:51:35.327Z,29.80
2018-02-23T11:52:36.404Z,24.02
2018-02-23T11:53:37.492Z,27.85
2018-02-23T11:54:38.559Z,26.67
2018-02-23T11:55:39.673Z,32.20
2018-02-23T11:56:40.731Z,31.37
2018-02-23T11:57:43.684Z,32.38
2018-02-23T11:58:44.763Z,30.12
2018-02-23T11:59:45.837Z,32.33
2018-02-23T12:00:46.912Z,30.77
2018-02-23T12:01:47.991Z,26.77
2018-02-23T12:02:49.069Z,24.60
2018-02-23T12:03:50.159Z,28.92
2018-02-23T12:04:51.256Z,26.55
2018-02-23T12:05:52.381Z,27.75
2018-02-23T12:06:53.477Z,33.00
2018-02-23T12:07:54.543Z,31.95
2018-02-23T12:08:55.621Z,31.83
2018-02-23T12:09:56.728Z,29.40
2018-02-23T12:10:57.791Z,27.85
2018-02-23T12:11:58.869Z,25.08
2018-02-23T12:12:59.956Z,30.52
2018-02-23T12:14:01.075Z,31.87
2018-02-23T12:15:02.159Z,25.50
2018-02-23T12:16:03.247Z,31.75
2018-02-23T12:17:04.336Z,27.02
2018-02-23T12:18:06.167Z,28.90
2018-02-23T12:19:07.247Z,28.30
2018-02-23T12:20:08.319Z,27.90
2018-02-23T12:21:09.379Z,32.63
2018-02-23T12:22:10.451Z,24.92
2018-02-23T12:23:11.535Z,29.05
2018-02-23T12:24:13.354Z,27.85
2018-02-23T12:25:14.447Z,25.00
2018-02-23T12:26:15.531Z,32.08
2018-02-23T12:27:17.366Z,29.10
2018-02-23T12:28:18.478Z,30.75
2018-02-23T12:29:19.563Z,32.60
2018-02-23T12:30:20.652Z,30.30
2018-02-23T12:31:21.731Z,28.73
2018-02-23T12:32:22.799Z,31.23
2018-02-23T12:33:23.865Z,30.42
2018-02-23T12:34:24.926Z,33.17
2018-02-23T12:35:26.032Z,33.40
2018-02-23T12:36:27.079Z,24.67
2018-02-23T12:37:28.900Z,27.80
2018-02-23T12:38:29.966Z,31.85
2018-02-23T12:39:31.080Z,25.73
2018-02-23T12:40:32.172Z,34.83
2018-02-23T12:41:33.249Z,27.02
2018-02-23T12:42:35.067Z,31.92
2018-02-23T12:43:36.139Z,31.83
2018-02-23T12:44:37.267Z,34.08
2018-02-23T12:45:38.344Z,34.67
2018-02-23T12:46:39.401Z,38.55
2018-02-23T12:47:40.476Z,31.73
2018-02-23T12:48:41.547Z,27.30
2018-02-23T12:49:42.612Z,31.20
2018-02-23T12:50:43.690Z,33.70
2018-02-23T12:51:44.777Z,28.65
2018-02-23T12:52:46.616Z,35.35
2018-02-23T12:53:47.704Z,31.55
2018-02-23T12:54:49.513Z,29.58
2018-02-23T12:55:50.570Z,34.88
2018-02-23T12:56:51.651Z,24.70
2018-02-23T12:57:52.763Z,32.40
2018-02-23T12:58:53.841Z,31.15
2018-02-23T12:59:55.658Z,38.35
2018-02-23T13:00:56.777Z,34.03
2018-02-23T13:01:57.879Z,32.35
2018-02-23T13:02:58.968Z,33.67
2018-02-23T13:04:00.035Z,34.90
2018-02-23T13:05:01.111Z,34.20
2018-02-23T13:06:02.204Z,28.00
2018-02-23T13:07:03.326Z,35.35
2018-02-23T13:08:05.148Z,26.35
2018-02-23T13:09:06.228Z,30.30
2018-02-23T13:10:07.323Z,25.88
2018-02-23T13:11:08.403Z,36.03
2018-02-23T13:12:09.485Z,35.05